Weather History for Crookston, MN

Change the Weather History Date:

Monday, April 22, 2013

  Actual Average Record
Temperature  
Mean Temperature 30 °F -  
Max Temperature 35 °F 55 °F 69 °F (1998)
Min Temperature 26 °F 32 °F 24 °F (2004)
Degree Days  
Heating Degree Days 34    
Moisture  
Dew Point 25 °F    
Average Humidity 81    
Maximum Humidity 93    
Minimum Humidity 64    
Precipitation  
Precipitation 0.00 in - - ()
Sea Level Pressure  
Sea Level Pressure 30.30 in    
Wind  
Wind Speed 13 mph (NNW)    
Max Wind Speed 21 mph    
Max Gust Speed 24 mph    
Visibility 10 miles    
Events      
Averages and records for this station are not official NWS values.
T = Trace of Precipitation, MM = Missing Value Source: NWS Daily Summary

Daily Weather History Graph

Daily Weather History Graph

Search for Another Location

Airport:

Trip Planner

Search our weather history database for the weather conditions in past years. The results will help you decide how hot, cold, wet, or windy it might be!

Date:

Astronomy

Apr. 22, 2013 Rise Set
Actual Time 6:23 AM CDT 8:26 PM CDT
Civil Twilight 5:50 AM CDT 9:00 PM CDT
Nautical Twilight 5:09 AM CDT 9:41 PM CDT
Astronomical Twilight 4:23 AM CDT 10:28 PM CDT
Moon 5:04 PM CDT (4/22) 4:33 AM CDT (4/22)
Length of Visible Light 15h 10m
Length of Day
14h 03m
Waxing Gibbous, 88% of the Moon is Illuminated
Apr 22
Waxing Gibbous
Apr 25
Full
May 2
Last Quarter
May 9
New
May 17
First Quarter

Hourly Weather History & Observations

Time (CDT) Temp. Windchill Dew Point Humidity Pressure Visibility Wind Dir Wind Speed Gust Speed Precip Events Conditions
12:15 AM 30.2 °F 20.8 °F 28.4 °F 93% 30.15 in 10.0 mi WNW 11.5 mph - N/A   Clear
12:34 AM 30.2 °F 20.8 °F 28.4 °F 93% 30.16 in 10.0 mi WNW 11.5 mph - N/A   Clear
12:54 AM 30.2 °F 20.8 °F 28.4 °F 93% 30.17 in 10.0 mi WNW 11.5 mph - N/A   Clear
1:14 AM 30.2 °F 20.2 °F 26.6 °F 86% 30.18 in 10.0 mi NW 12.7 mph - N/A   Clear
1:34 AM 30.2 °F 20.8 °F 26.6 °F 86% 30.17 in 10.0 mi NW 11.5 mph - N/A   Clear
1:55 AM 30.2 °F 19.3 °F 26.6 °F 86% 30.18 in 10.0 mi NW 15.0 mph - N/A   Clear
2:14 AM 30.2 °F 19.3 °F 26.6 °F 86% 30.19 in 10.0 mi NW 15.0 mph - N/A   Clear
2:34 AM 30.2 °F 19.3 °F 26.6 °F 86% 30.19 in 10.0 mi NW 15.0 mph - N/A   Clear
2:55 AM 30.2 °F 18.9 °F 26.6 °F 86% 30.20 in 10.0 mi NW 16.1 mph - N/A   Clear
3:14 AM 30.2 °F 18.9 °F 26.6 °F 86% 30.20 in 10.0 mi NW 16.1 mph - N/A   Clear
3:35 AM 30.2 °F 20.2 °F 26.6 °F 86% 30.21 in 10.0 mi NW 12.7 mph - N/A   Clear
3:54 AM 30.2 °F 21.9 °F 26.6 °F 86% 30.21 in 10.0 mi NNW 9.2 mph - N/A   Clear
4:14 AM 28.4 °F 17.5 °F 26.6 °F 93% 30.21 in 10.0 mi NNW 13.8 mph - N/A   Clear
4:35 AM 28.4 °F 19.1 °F 26.6 °F 93% 30.22 in 10.0 mi NNW 10.4 mph - N/A   Clear
4:54 AM 28.4 °F 19.1 °F 26.6 °F 93% 30.22 in 10.0 mi NNW 10.4 mph - N/A   Clear
5:15 AM 28.4 °F 20.4 °F 26.6 °F 93% 30.24 in 10.0 mi NNW 8.1 mph - N/A   Clear
5:34 AM 28.4 °F 21.2 °F 26.6 °F 93% 30.24 in 10.0 mi NNW 6.9 mph - N/A   Clear
5:54 AM 28.4 °F 20.4 °F 26.6 °F 93% 30.25 in 10.0 mi NNW 8.1 mph - N/A   Clear
6:15 AM 28.4 °F 20.4 °F 26.6 °F 93% 30.26 in 10.0 mi NNW 8.1 mph - N/A   Clear
6:35 AM 28.4 °F 20.4 °F 26.6 °F 93% 30.27 in 10.0 mi NNW 8.1 mph - N/A   Scattered Clouds
6:54 AM 28.4 °F 20.4 °F 26.6 °F 93% 30.27 in 10.0 mi North 8.1 mph - N/A   Scattered Clouds
7:15 AM 28.4 °F 19.7 °F 26.6 °F 93% 30.28 in 10.0 mi North 9.2 mph - N/A   Clear
7:34 AM 28.4 °F 20.4 °F 26.6 °F 93% 30.28 in 10.0 mi North 8.1 mph - N/A   Clear
7:54 AM 28.4 °F 19.7 °F 26.6 °F 93% 30.29 in 10.0 mi North 9.2 mph - N/A   Clear
8:15 AM 28.4 °F 19.1 °F 24.8 °F 86% 30.30 in 10.0 mi NNE 10.4 mph - N/A   Clear
8:34 AM 28.4 °F 19.7 °F 24.8 °F 86% 30.31 in 10.0 mi NNE 9.2 mph - N/A   Clear
8:54 AM 28.4 °F 19.1 °F 24.8 °F 86% 30.31 in 10.0 mi NNE 10.4 mph - N/A   Clear
9:15 AM 28.4 °F 19.1 °F 24.8 °F 86% 30.32 in 10.0 mi NNE 10.4 mph - N/A   Scattered Clouds
9:34 AM 28.4 °F 18.0 °F 24.8 °F 86% 30.32 in 10.0 mi North 12.7 mph - N/A   Clear
9:54 AM 28.4 °F 17.5 °F 24.8 °F 86% 30.32 in 10.0 mi North 13.8 mph - N/A   Clear
10:15 AM 30.2 °F 19.3 °F 24.8 °F 80% 30.33 in 10.0 mi North 15.0 mph - N/A   Clear
10:34 AM 30.2 °F 18.5 °F 23.0 °F 75% 30.34 in 10.0 mi North 17.3 mph - N/A   Clear
10:54 AM 28.4 °F 17.0 °F 21.2 °F 74% 30.34 in 10.0 mi North 15.0 mph - N/A   Clear
11:15 AM 30.2 °F 18.5 °F 23.0 °F 75% 30.34 in 10.0 mi North 17.3 mph - N/A   Clear
11:34 AM 30.2 °F 19.3 °F 23.0 °F 75% 30.35 in 10.0 mi North 15.0 mph - N/A   Clear
11:54 AM 30.2 °F 18.9 °F 23.0 °F 75% 30.35 in 10.0 mi North 16.1 mph - N/A   Clear
12:14 PM 30.2 °F 18.1 °F 23.0 °F 75% 30.34 in 10.0 mi North 18.4 mph - N/A   Clear
12:34 PM 32.0 °F 21.2 °F 24.8 °F 75% 30.35 in 10.0 mi North 16.1 mph - N/A   Clear
12:55 PM 32.0 °F 21.2 °F 24.8 °F 75% 30.35 in 10.0 mi NNW 16.1 mph - N/A   Clear
1:14 PM 32.0 °F 21.2 °F 24.8 °F 75% 30.35 in 10.0 mi North 16.1 mph - N/A   Clear
1:34 PM 33.8 °F 23.5 °F 26.6 °F 75% 30.35 in 10.0 mi North 16.1 mph - N/A   Scattered Clouds
1:55 PM 33.8 °F 23.2 °F 26.6 °F 75% 30.34 in 10.0 mi North 17.3 mph 24.2 mph N/A   Scattered Clouds
2:14 PM 33.8 °F 22.5 °F 26.6 °F 75% 30.34 in 10.0 mi North 19.6 mph 23.0 mph N/A   Scattered Clouds
2:34 PM 33.8 °F 23.5 °F 26.6 °F 75% 30.34 in 10.0 mi North 16.1 mph - N/A   Scattered Clouds
2:55 PM 33.8 °F 22.2 °F 26.6 °F 75% 30.34 in 10.0 mi North 20.7 mph - N/A   Mostly Cloudy
3:14 PM 35.6 °F 24.8 °F 26.6 °F 70% 30.34 in 10.0 mi North 19.6 mph - N/A   Mostly Cloudy
3:34 PM 33.8 °F 22.5 °F 24.8 °F 70% 30.34 in 10.0 mi NNW 19.6 mph - N/A   Mostly Cloudy
3:55 PM 33.8 °F 22.8 °F 24.8 °F 70% 30.34 in 10.0 mi North 18.4 mph - N/A   Mostly Cloudy
4:14 PM 33.8 °F 23.2 °F 24.8 °F 70% 30.34 in 10.0 mi North 17.3 mph - N/A   Mostly Cloudy
4:34 PM 33.8 °F 23.5 °F 26.6 °F 75% 30.33 in 10.0 mi North 16.1 mph - N/A   Mostly Cloudy
4:55 PM 33.8 °F 23.2 °F 24.8 °F 70% 30.33 in 10.0 mi North 17.3 mph - N/A   Overcast
5:14 PM 33.8 °F 22.8 °F 24.8 °F 70% 30.33 in 10.0 mi North 18.4 mph - N/A   Scattered Clouds
5:35 PM 33.8 °F 23.5 °F 24.8 °F 70% 30.33 in 10.0 mi NNW 16.1 mph 21.9 mph N/A   Scattered Clouds
5:55 PM 33.8 °F 23.5 °F 24.8 °F 70% 30.33 in 10.0 mi North 16.1 mph 21.9 mph N/A   Mostly Cloudy
6:14 PM 33.8 °F 23.2 °F 24.8 °F 70% 30.33 in 10.0 mi North 17.3 mph - N/A   Scattered Clouds
6:35 PM 32.0 °F 20.1 °F 24.8 °F 75% 30.33 in 10.0 mi North 19.6 mph - N/A   Scattered Clouds
6:55 PM 32.0 °F 20.8 °F 23.0 °F 69% 30.33 in 10.0 mi North 17.3 mph - N/A   Clear
7:14 PM 32.0 °F 20.8 °F 21.2 °F 64% 30.33 in 10.0 mi North 17.3 mph - N/A   Clear
7:35 PM 30.2 °F 18.5 °F 23.0 °F 75% 30.33 in 10.0 mi North 17.3 mph - N/A   Clear
7:55 PM 30.2 °F 19.3 °F 21.2 °F 69% 30.33 in 10.0 mi North 15.0 mph 19.6 mph N/A   Clear
8:14 PM 30.2 °F 19.3 °F 21.2 °F 69% 30.33 in 10.0 mi North 15.0 mph - N/A   Clear
8:35 PM 28.4 °F 19.1 °F 23.0 °F 80% 30.34 in 10.0 mi North 10.4 mph - N/A   Clear
8:55 PM 28.4 °F 19.7 °F 23.0 °F 80% 30.34 in 10.0 mi North 9.2 mph - N/A   Clear
9:14 PM 28.4 °F 19.7 °F 23.0 °F 80% 30.34 in 10.0 mi North 9.2 mph - N/A   Clear
9:35 PM 26.6 °F 20.0 °F 23.0 °F 86% 30.35 in 10.0 mi North 5.8 mph - N/A   Clear
9:54 PM 26.6 °F 18.2 °F 23.0 °F 86% 30.35 in 10.0 mi North 8.1 mph - N/A   Clear
10:14 PM 26.6 °F 19.1 °F 21.2 °F 80% 30.35 in 10.0 mi North 6.9 mph - N/A   Clear
10:35 PM 26.6 °F 19.1 °F 21.2 °F 80% 30.35 in 10.0 mi North 6.9 mph - N/A   Clear
10:54 PM 26.6 °F 20.0 °F 21.2 °F 80% 30.35 in 10.0 mi North 5.8 mph - N/A   Clear
11:14 PM 26.6 °F 20.0 °F 23.0 °F 86% 30.35 in 10.0 mi NNW 5.8 mph - N/A   Clear
11:35 PM 26.6 °F 21.2 °F 23.0 °F 86% 30.34 in 10.0 mi NNW 4.6 mph - N/A   Clear
11:54 PM 28.4 °F 21.2 °F 24.8 °F 86% 30.34 in 10.0 mi NNW 6.9 mph - N/A   Clear